Time;durP1;ratioP1;P1;durP2;ratioP2;P2;SDS_P1;SDS_P2;PMS_P1;PMS_P2;Temp;Humidity;BMP_temperature;BMP_pressure;BME280_temperature;BME280_humidity;BME280_pressure;Samples;Min_cycle;Max_cycle;Signal;HPM_P1;HPM_P2
2022/02/14 00:00:07;;;;;;;1.15;0.95;;;22.50;59.40;;;;;;5017780;28;96352;-58
2022/02/14 00:02:42;;;;;;;1.40;0.93;;;22.40;59.10;;;;;;5020200;28;101663;-56
2022/02/14 00:05:13;;;;;;;1.55;0.90;;;22.50;59.40;;;;;;5021741;28;95768;-59
2022/02/14 00:07:44;;;;;;;1.25;0.90;;;22.60;52.90;;;;;;5014516;27;96044;-56
2022/02/14 00:10:15;;;;;;;3.17;1.52;;;22.50;58.10;;;;;;5019991;28;97263;-58
2022/02/14 00:12:47;;;;;;;1.08;0.98;;;22.50;58.70;;;;;;5020524;28;96028;-58
2022/02/14 00:15:18;;;;;;;1.25;0.93;;;22.50;57.80;;;;;;5005443;27;96445;-56
2022/02/14 00:17:49;;;;;;;1.63;0.90;;;22.50;57.40;;;;;;5020399;27;96291;-54
2022/02/14 00:20:20;;;;;;;1.13;0.93;;;22.50;57.40;;;;;;5003065;28;96186;-57
2022/02/14 00:22:53;;;;;;;2.00;1.08;;;22.50;56.90;;;;;;5019782;28;95857;-58
2022/02/14 00:25:24;;;;;;;1.67;0.80;;;22.50;56.70;;;;;;5017838;28;95457;-57
2022/02/14 00:27:57;;;;;;;1.73;0.77;;;22.60;56.70;;;;;;5021350;28;95804;-55
2022/02/14 00:30:29;;;;;;;1.23;0.88;;;22.60;56.30;;;;;;5012571;28;95885;-56
2022/02/14 00:32:58;;;;;;;;;;;22.60;56.40;;;;;;5019779;28;101955;-57
2022/02/14 00:35:28;;;;;;;1.05;0.75;;;22.60;56.00;;;;;;5022094;28;96099;-58
2022/02/14 00:38:00;;;;;;;3.92;1.00;;;22.60;56.00;;;;;;5016177;28;96162;-57
2022/02/14 00:40:30;;;;;;;1.95;0.88;;;22.60;56.10;;;;;;5014921;28;96566;-58
2022/02/14 00:43:02;;;;;;;5.63;0.90;;;22.70;56.10;;;;;;5013439;27;97406;-56
2022/02/14 00:45:33;;;;;;;1.42;0.80;;;22.70;56.10;;;;;;5012618;28;96673;-57
2022/02/14 00:48:06;;;;;;;3.42;0.80;;;22.70;56.10;;;;;;5020297;28;98137;-58
2022/02/14 00:50:36;;;;;;;1.27;0.70;;;22.70;55.80;;;;;;5016512;28;96856;-57
2022/02/14 00:53:08;;;;;;;1.75;0.95;;;22.80;55.40;;;;;;5018700;28;97419;-56
2022/02/14 00:55:40;;;;;;;0.52;0.52;;;22.80;55.20;;;;;;5021134;28;97928;-57
2022/02/14 00:58:10;;;;;;;0.95;0.80;;;22.80;55.00;;;;;;5011778;28;96155;-57
2022/02/14 01:00:40;;;;;;;1.13;0.80;;;22.80;54.90;;;;;;5010931;28;95803;-56
2022/02/14 01:03:10;;;;;;;3.80;1.10;;;22.80;54.60;;;;;;5018814;28;95871;-57
2022/02/14 01:05:42;;;;;;;0.63;0.63;;;22.90;54.50;;;;;;5020208;28;95639;-56
2022/02/14 01:08:13;;;;;;;0.75;0.68;;;22.90;54.70;;;;;;5018587;28;95781;-59
2022/02/14 01:10:44;;;;;;;;;;;22.90;54.70;;;;;;5019754;28;95876;-56
2022/02/14 01:13:15;;;;;;;1.80;0.70;;;23.00;54.80;;;;;;5002630;28;96031;-56
2022/02/14 01:15:46;;;;;;;0.70;0.70;;;23.00;54.90;;;;;;5006660;27;95770;-56
2022/02/14 01:18:17;;;;;;;2.35;0.73;;;23.10;54.60;;;;;;5019071;27;95956;-58
2022/02/14 01:20:50;;;;;;;0.73;0.73;;;23.10;54.70;;;;;;5019130;28;96489;-56
2022/02/14 01:23:21;;;;;;;0.82;0.60;;;23.10;54.60;;;;;;5018125;28;96541;-57
2022/02/14 01:25:51;;;;;;;0.50;0.50;;;23.20;54.40;;;;;;5019748;28;95799;-57
2022/02/14 01:28:24;;;;;;;0.88;0.80;;;23.20;54.40;;;;;;5018191;28;96407;-57
2022/02/14 01:30:57;;;;;;;3.25;1.50;;;23.20;54.30;;;;;;5009938;28;95862;-55
2022/02/14 01:33:27;;;;;;;4.00;1.65;;;23.30;54.20;;;;;;5005662;28;96107;-56
2022/02/14 01:35:57;;;;;;;1.60;1.50;;;23.30;53.60;;;;;;5018561;28;96630;-55
2022/02/14 01:38:27;;;;;;;2.38;1.55;;;23.30;53.30;;;;;;5019564;28;95996;-57
2022/02/14 01:40:58;;;;;;;2.88;2.50;;;23.30;52.80;;;;;;5017943;28;95961;-57
2022/02/14 01:43:29;;;;;;;3.47;2.13;;;23.30;52.60;;;;;;5019333;28;96571;-56
2022/02/14 01:46:01;;;;;;;3.90;2.10;;;23.30;52.30;;;;;;5017996;28;96017;-59
2022/02/14 01:48:32;;;;;;;3.53;1.92;;;23.30;51.80;;;;;;5022495;28;96402;-56
2022/02/14 01:51:03;;;;;;;2.50;1.87;;;23.30;51.30;;;;;;5004423;28;96474;-56
2022/02/14 01:53:33;;;;;;;;;;;23.30;51.10;;;;;;5020678;28;95806;-57
2022/02/14 01:56:05;;;;;;;2.67;1.90;;;23.30;51.00;;;;;;5025545;28;96019;-58
2022/02/14 01:58:35;;;;;;;3.50;1.70;;;23.30;50.80;;;;;;5021179;28;95681;-53
2022/02/14 02:01:06;;;;;;;3.33;1.42;;;23.30;50.40;;;;;;5015215;27;95645;-59
2022/02/14 02:03:37;;;;;;;2.28;1.45;;;23.30;50.40;;;;;;5023778;28;95830;-59
2022/02/14 02:06:11;;;;;;;3.38;1.60;;;23.40;50.50;;;;;;5022291;28;95641;-58
2022/02/14 02:08:42;;;;;;;2.97;1.73;;;23.40;50.90;;;;;;5022083;28;95939;-59
2022/02/14 02:14:03;;;;;;;2.88;1.63;;;23.50;51.00;;;;;;5019959;27;95794;-58
2022/02/14 02:16:33;;;;;;;1.25;0.90;;;23.60;51.00;;;;;;5010307;27;95833;-58
2022/02/14 02:19:03;;;;;;;2.38;1.45;;;23.60;50.80;;;;;;5020708;28;95802;-59
2022/02/14 02:21:34;;;;;;;1.15;1.05;;;23.70;50.90;;;;;;5021551;28;96320;-57
2022/02/14 02:24:10;;;;;;;1.83;1.30;;;23.70;50.90;;;;;;5022929;28;96013;-57
2022/02/14 02:26:43;;;;;;;2.70;1.30;;;23.80;50.90;;;;;;5024043;28;95687;-58
2022/02/14 02:29:14;;;;;;;;;;;23.80;50.90;;;;;;5022897;28;95816;-54
2022/02/14 02:31:44;;;;;;;1.43;1.20;;;23.90;50.80;;;;;;5015566;28;96192;-56
2022/02/14 02:34:14;;;;;;;1.80;1.30;;;23.90;50.80;;;;;;5022367;28;95414;-57
2022/02/14 02:36:51;;;;;;;2.40;1.00;;;23.90;50.80;;;;;;5023820;28;95756;-57
2022/02/14 02:39:21;;;;;;;1.25;1.10;;;24.00;50.70;;;;;;5021321;28;95860;-60
2022/02/14 02:41:52;;;;;;;1.10;0.90;;;24.10;50.60;;;;;;5024118;28;95909;-58
2022/02/14 02:44:23;;;;;;;0.93;0.90;;;24.10;50.70;;;;;;5021573;28;95566;-57
2022/02/14 02:46:54;;;;;;;2.20;0.90;;;24.10;50.70;;;;;;5016108;27;97711;-57
2022/02/14 02:49:24;;;;;;;2.10;1.25;;;24.10;50.10;;;;;;5022478;28;95678;-56
2022/02/14 02:51:54;;;;;;;0.80;0.80;;;24.10;48.90;;;;;;5022124;28;96591;-55
2022/02/14 02:54:26;;;;;;;1.20;1.10;;;24.10;48.40;;;;;;5019888;28;95859;-56
2022/02/14 02:56:58;;;;;;;1.90;1.30;;;24.10;48.70;;;;;;5021535;28;95933;-54
2022/02/14 02:59:35;;;;;;;2.03;1.17;;;24.10;48.60;;;;;;5021191;28;95717;-56
2022/02/14 03:02:08;;;;;;;1.58;1.10;;;24.10;48.40;;;;;;5013993;28;98575;-54
2022/02/14 03:04:40;;;;;;;1.85;1.17;;;24.10;48.50;;;;;;5021158;28;96257;-55
2022/02/14 03:07:12;;;;;;;1.05;0.98;;;24.20;48.90;;;;;;5024228;28;95711;-56
2022/02/14 03:09:44;;;;;;;2.92;1.00;;;24.40;49.40;;;;;;5022978;28;95657;-57
2022/02/14 03:12:22;;;;;;;3.67;1.00;;;24.60;49.70;;;;;;5020423;28;96351;-56
2022/02/14 03:14:52;;;;;;;3.35;1.30;;;24.60;48.70;;;;;;5013710;27;98168;-55
2022/02/14 03:17:23;;;;;;;2.85;1.30;;;24.70;49.80;;;;;;5007036;27;98004;-53
2022/02/14 03:19:54;;;;;;;0.95;0.90;;;24.90;50.20;;;;;;5018974;28;95807;-56
2022/02/14 03:22:26;;;;;;;1.75;0.98;;;25.00;50.30;;;;;;5018063;28;96409;-56
2022/02/14 03:24:57;;;;;;;1.70;1.20;;;25.10;50.60;;;;;;5017137;28;95666;-54
2022/02/14 03:27:28;;;;;;;1.90;0.90;;;25.20;50.60;;;;;;5016750;28;95765;-53
2022/02/14 03:30:00;;;;;;;1.50;0.98;;;25.30;50.90;;;;;;5016289;28;96583;-56
2022/02/14 03:32:30;;;;;;;0.55;0.55;;;25.40;51.20;;;;;;4994157;28;96352;-56
2022/02/14 03:35:00;;;;;;;0.70;0.70;;;25.50;51.30;;;;;;4999841;28;96035;-54
2022/02/14 03:37:30;;;;;;;1.65;1.10;;;25.50;51.40;;;;;;5015104;28;95817;-53
2022/02/14 03:40:00;;;;;;;2.15;0.80;;;25.60;51.80;;;;;;5017723;28;95907;-56
2022/02/14 03:42:31;;;;;;;1.10;0.90;;;25.70;51.90;;;;;;5017274;28;95916;-56
2022/02/14 03:45:02;;;;;;;1.02;1.02;;;25.80;52.10;;;;;;5006878;28;98179;-53
2022/02/14 03:47:32;;;;;;;;;;;25.80;52.10;;;;;;5004234;28;96284;-54
2022/02/14 03:50:02;;;;;;;2.35;0.80;;;25.90;52.40;;;;;;5019386;28;96004;-58
2022/02/14 03:52:33;;;;;;;1.70;0.70;;;26.00;52.50;;;;;;5017818;28;96585;-54
2022/02/14 03:55:05;;;;;;;1.23;0.60;;;26.00;52.60;;;;;;5016215;28;96372;-55
2022/02/14 03:57:36;;;;;;;1.50;0.57;;;26.00;52.60;;;;;;5016700;28;96479;-55
2022/02/14 04:00:08;;;;;;;1.08;0.70;;;26.20;52.70;;;;;;5010002;28;95830;-52
2022/02/14 04:02:41;;;;;;;1.02;0.95;;;26.20;52.80;;;;;;5015248;28;95768;-55
2022/02/14 04:05:13;;;;;;;3.83;0.85;;;26.30;53.10;;;;;;5015138;28;95956;-55
2022/02/14 04:07:45;;;;;;;0.70;0.70;;;26.20;51.90;;;;;;5018239;28;96016;-55
2022/02/14 04:10:18;;;;;;;1.20;0.93;;;25.90;49.70;;;;;;5017094;28;96573;-54
2022/02/14 04:12:49;;;;;;;4.22;1.10;;;25.70;48.90;;;;;;5016863;28;96989;-54
2022/02/14 04:15:21;;;;;;;2.50;0.90;;;25.60;48.40;;;;;;5007166;27;95902;-51
2022/02/14 04:17:51;;;;;;;1.70;1.23;;;25.50;48.30;;;;;;5015616;27;95833;-54
2022/02/14 04:20:22;;;;;;;1.27;1.00;;;25.50;48.10;;;;;;5015765;28;95753;-55
2022/02/14 04:22:54;;;;;;;3.13;1.50;;;25.40;48.10;;;;;;5016320;28;96461;-55
2022/02/14 04:25:25;;;;;;;1.30;0.90;;;25.40;47.90;;;;;;5016769;27;95958;-55
2022/02/14 04:27:56;;;;;;;1.45;1.10;;;25.40;47.90;;;;;;5020517;28;95881;-53
2022/02/14 04:30:29;;;;;;;3.60;1.27;;;25.40;47.90;;;;;;5012366;28;95778;-56
2022/02/14 04:33:00;;;;;;;7.07;1.60;;;25.30;47.80;;;;;;5018848;28;95784;-55
2022/02/14 04:35:33;;;;;;;2.88;1.42;;;25.30;47.90;;;;;;5019843;28;96625;-55
2022/02/14 04:38:03;;;;;;;4.15;1.08;;;25.40;48.40;;;;;;5018727;28;97042;-56
2022/02/14 04:40:39;;;;;;;2.47;1.35;;;25.40;48.40;;;;;;5019551;28;95957;-55
2022/02/14 04:43:11;;;;;;;2.97;1.45;;;25.40;48.30;;;;;;5018605;28;96365;-56
2022/02/14 04:45:43;;;;;;;5.18;1.30;;;25.50;48.30;;;;;;5011926;28;95768;-57
2022/02/14 04:48:15;;;;;;;1.75;1.08;;;25.50;48.40;;;;;;5019774;28;95842;-55
2022/02/14 04:50:45;;;;;;;1.90;0.88;;;25.50;48.50;;;;;;5018589;28;96120;-57
2022/02/14 04:53:16;;;;;;;4.85;1.90;;;25.50;48.30;;;;;;5017873;28;96379;-54
2022/02/14 04:55:47;;;;;;;2.17;1.33;;;25.50;48.30;;;;;;5019147;28;95922;-57
2022/02/14 04:58:17;;;;;;;3.63;1.23;;;25.50;48.30;;;;;;5019982;28;95943;-53
2022/02/14 05:00:47;;;;;;;2.47;1.37;;;25.50;48.30;;;;;;5014164;28;95769;-53
2022/02/14 05:03:17;;;;;;;2.22;1.40;;;25.60;48.10;;;;;;5019115;28;96095;-53
2022/02/14 05:05:47;;;;;;;2.73;1.47;;;25.60;48.00;;;;;;5018653;28;95631;-56
2022/02/14 05:08:18;;;;;;;3.92;1.30;;;25.60;48.00;;;;;;5018886;28;95786;-54
2022/02/14 05:10:50;;;;;;;3.58;1.42;;;25.60;48.10;;;;;;5017300;28;96398;-54
2022/02/14 05:13:22;;;;;;;4.10;1.83;;;25.60;48.10;;;;;;5017267;27;95976;-55
2022/02/14 05:15:53;;;;;;;2.47;1.50;;;25.60;48.10;;;;;;5005294;27;96632;-56
2022/02/14 05:18:25;;;;;;;2.17;1.52;;;25.60;48.20;;;;;;5019511;27;95946;-53
2022/02/14 05:20:55;;;;;;;;;;;25.60;48.20;;;;;;5021497;28;95643;-53
2022/02/14 05:23:26;;;;;;;2.30;1.80;;;25.60;48.10;;;;;;5020065;28;96251;-57
2022/02/14 05:25:57;;;;;;;3.33;1.65;;;25.70;48.60;;;;;;5016367;28;95712;-54
2022/02/14 05:28:29;;;;;;;2.83;1.63;;;25.80;48.10;;;;;;5020563;28;97550;-53
2022/02/14 05:31:00;;;;;;;3.75;1.92;;;25.70;47.90;;;;;;5011554;28;96056;-55
2022/02/14 05:33:32;;;;;;;3.13;1.67;;;25.70;48.70;;;;;;5018588;28;97555;-56
2022/02/14 05:36:02;;;;;;;3.22;1.80;;;25.70;48.70;;;;;;5018077;27;96423;-55
2022/02/14 05:38:32;;;;;;;1.92;1.25;;;25.70;48.30;;;;;;5019473;28;97321;-55
2022/02/14 05:41:02;;;;;;;;;;;25.70;48.40;;;;;;5016400;28;96116;-54
2022/02/14 05:43:33;;;;;;;3.90;1.60;;;25.70;48.50;;;;;;5018648;28;96302;-54
2022/02/14 05:46:04;;;;;;;3.88;2.25;;;25.70;48.50;;;;;;5011435;27;95947;-55
2022/02/14 05:48:36;;;;;;;2.90;1.88;;;25.70;48.90;;;;;;5018629;28;95778;-58
2022/02/14 05:51:10;;;;;;;4.38;1.63;;;25.80;48.40;;;;;;5017851;28;95835;-54
2022/02/14 05:53:41;;;;;;;11.00;2.22;;;25.70;48.20;;;;;;5018985;28;95940;-56
2022/02/14 05:56:14;;;;;;;4.53;2.20;;;25.60;48.20;;;;;;5018047;28;96009;-57
2022/02/14 05:58:44;;;;;;;4.22;1.52;;;25.60;48.30;;;;;;5003896;28;96039;-55
2022/02/14 06:01:15;;;;;;;3.75;2.08;;;25.60;48.30;;;;;;5010741;28;95851;-57
2022/02/14 06:03:45;;;;;;;3.42;1.65;;;25.50;48.20;;;;;;5015947;28;95887;-55
2022/02/14 06:06:16;;;;;;;2.77;2.20;;;25.50;48.20;;;;;;5019665;28;95839;-56
2022/02/14 06:08:48;;;;;;;3.85;1.80;;;25.50;48.20;;;;;;5018111;28;95725;-55
2022/02/14 06:11:19;;;;;;;3.67;1.90;;;25.60;49.40;;;;;;5019395;28;98015;-52
2022/02/14 06:13:51;;;;;;;4.82;1.85;;;25.70;49.20;;;;;;5017989;27;99891;-54
2022/02/14 06:16:20;;;;;;;5.38;1.63;;;25.80;49.20;;;;;;5004627;27;97524;-55
2022/02/14 06:18:50;;;;;;;6.10;2.10;;;25.80;49.20;;;;;;5018932;28;95415;-54
2022/02/14 06:21:21;;;;;;;4.97;1.75;;;25.80;49.20;;;;;;5018445;28;95795;-56
2022/02/14 06:23:52;;;;;;;6.82;2.22;;;25.80;49.10;;;;;;5018329;28;95704;-55
2022/02/14 06:26:23;;;;;;;6.10;2.20;;;25.80;49.70;;;;;;5018890;28;96716;-54
2022/02/14 06:28:54;;;;;;;9.32;2.38;;;25.90;49.90;;;;;;5018097;28;96563;-53
2022/02/14 06:31:28;;;;;;;4.35;1.60;;;26.00;50.60;;;;;;5010136;28;97413;-55
2022/02/14 06:34:00;;;;;;;4.55;1.75;;;26.00;49.20;;;;;;5017490;28;96031;-53
2022/02/14 06:36:31;;;;;;;;;;;26.00;40.90;;;;;;5005865;28;96874;-54
2022/02/14 06:39:02;;;;;;;4.68;2.13;;;25.90;48.50;;;;;;5019665;28;95752;-54
2022/02/14 06:41:32;;;;;;;4.80;2.10;;;25.90;48.40;;;;;;5021312;28;96002;-56
2022/02/14 06:44:03;;;;;;;5.97;2.13;;;25.90;48.30;;;;;;5019803;28;95862;-56
2022/02/14 06:46:34;;;;;;;5.05;2.45;;;25.90;48.20;;;;;;5010015;28;95796;-57
2022/02/14 06:49:06;;;;;;;3.08;1.63;;;25.90;48.10;;;;;;5016318;28;95368;-56
2022/02/14 06:51:39;;;;;;;6.90;1.83;;;25.90;47.80;;;;;;5017905;28;96032;-56
2022/02/14 06:54:10;;;;;;;4.93;2.03;;;25.90;48.50;;;;;;5019346;28;96459;-54
2022/02/14 06:56:41;;;;;;;4.38;1.55;;;25.90;47.50;;;;;;5017240;28;96060;-54
2022/02/14 06:59:13;;;;;;;4.60;2.05;;;25.90;47.50;;;;;;5018401;28;95748;-56
2022/02/14 07:01:44;;;;;;;4.32;1.88;;;25.90;47.30;;;;;;5011619;27;95249;-55
2022/02/14 07:04:16;;;;;;;4.20;2.08;;;26.00;39.10;;;;;;5017494;28;96431;-53
2022/02/14 07:06:47;;;;;;;4.35;2.17;;;25.90;47.10;;;;;;5014723;28;95820;-54
2022/02/14 07:09:19;;;;;;;4.72;1.98;;;25.90;47.00;;;;;;5019224;28;95971;-55
2022/02/14 07:11:51;;;;;;;5.15;1.90;;;25.90;47.10;;;;;;5018541;28;96595;-53
2022/02/14 07:14:22;;;;;;;;;;;25.90;47.00;;;;;;5017983;27;96275;-55
2022/02/14 07:16:52;;;;;;;4.47;1.88;;;25.90;46.70;;;;;;5008743;27;95864;-56
2022/02/14 07:19:24;;;;;;;3.38;1.73;;;25.90;46.40;;;;;;5016012;28;95845;-55
2022/02/14 07:21:56;;;;;;;4.72;1.50;;;25.90;46.50;;;;;;5016452;28;96040;-54
2022/02/14 07:24:25;;;;;;;;;;;25.90;46.30;;;;;;5017346;28;95891;-54
2022/02/14 07:26:56;;;;;;;3.83;1.60;;;25.90;46.30;;;;;;5016581;28;95688;-55
2022/02/14 07:29:28;;;;;;;3.00;1.52;;;25.90;46.20;;;;;;5016781;28;97422;-54
2022/02/14 07:31:59;;;;;;;3.53;1.85;;;25.90;46.30;;;;;;5010449;28;95743;-56
2022/02/14 07:34:29;;;;;;;3.35;1.50;;;25.90;46.70;;;;;;5015406;28;95926;-55
2022/02/14 07:37:02;;;;;;;4.07;1.83;;;25.80;46.30;;;;;;5017063;28;96117;-56
2022/02/14 07:39:35;;;;;;;3.28;1.63;;;25.80;46.30;;;;;;5013271;28;96216;-56
2022/02/14 07:42:07;;;;;;;3.63;1.95;;;25.80;46.30;;;;;;5017776;28;95755;-53
2022/02/14 07:44:38;;;;;;;4.97;1.77;;;25.90;46.30;;;;;;5019232;28;96627;-56
2022/02/14 07:47:08;;;;;;;;;;;25.80;46.30;;;;;;5007739;27;96647;-56
2022/02/14 07:49:40;;;;;;;3.60;1.95;;;25.80;46.20;;;;;;5018218;28;96616;-57
2022/02/14 07:52:11;;;;;;;6.03;2.00;;;25.80;46.30;;;;;;5017488;28;95777;-55
2022/02/14 07:54:42;;;;;;;6.28;1.90;;;25.80;46.30;;;;;;5014173;28;98107;-55
2022/02/14 07:57:13;;;;;;;;;;;25.80;46.40;;;;;;5016427;28;98332;-52
2022/02/14 07:59:47;;;;;;;4.95;2.30;;;25.70;46.30;;;;;;5020433;28;95832;-54
2022/02/14 08:02:20;;;;;;;4.18;2.03;;;25.70;46.20;;;;;;5014843;28;97153;-55
2022/02/14 08:04:52;;;;;;;3.17;1.90;;;25.70;46.20;;;;;;5021224;28;95890;-53
2022/02/14 08:07:33;;;;;;;3.95;1.85;;;25.70;46.20;;;;;;5020793;28;96045;-57
2022/02/14 08:10:26;;;;;;;3.03;2.00;;;25.60;46.10;;;;;;5016546;28;95960;-55
2022/02/14 08:12:58;;;;;;;4.47;2.10;;;25.70;38.50;;;;;;5018523;28;95912;-55
2022/02/14 08:15:30;;;;;;;3.72;1.50;;;25.60;46.30;;;;;;5007095;27;96872;-56
2022/02/14 08:18:04;;;;;;;4.53;1.80;;;25.60;46.40;;;;;;5018907;27;97698;-53
2022/02/14 08:20:35;;;;;;;4.47;2.22;;;25.60;46.60;;;;;;5019644;28;95931;-53
2022/02/14 08:23:07;;;;;;;5.80;1.92;;;25.60;46.70;;;;;;5021569;28;95895;-56
2022/02/14 08:25:37;;;;;;;3.25;2.00;;;25.60;47.00;;;;;;5021908;28;96027;-56
2022/02/14 08:28:07;;;;;;;1.97;1.50;;;25.60;47.10;;;;;;5020397;28;96335;-57
2022/02/14 08:30:39;;;;;;;6.40;1.90;;;25.60;47.30;;;;;;5013571;28;98472;-55
2022/02/14 08:33:10;;;;;;;3.67;1.98;;;25.60;47.50;;;;;;5021127;28;97162;-56
2022/02/14 08:35:41;;;;;;;4.10;2.00;;;25.50;47.50;;;;;;5020771;28;95920;-55
2022/02/14 08:38:11;;;;;;;4.38;1.92;;;25.50;47.70;;;;;;5021051;28;95801;-55
2022/02/14 08:40:41;;;;;;;4.55;1.80;;;25.50;47.90;;;;;;5022422;28;96270;-58
2022/02/14 08:43:12;;;;;;;4.80;1.70;;;25.50;48.00;;;;;;5020435;28;96320;-56
2022/02/14 08:46:03;;;;;;;3.60;1.90;;;25.50;48.10;;;;;;5010467;28;96736;-60
2022/02/14 08:48:34;;;;;;;4.07;1.65;;;25.50;48.10;;;;;;5019562;28;95854;-55
2022/02/14 08:51:05;;;;;;;6.35;2.15;;;25.50;48.20;;;;;;5020682;28;97729;-58
2022/02/14 08:53:37;;;;;;;7.22;2.40;;;25.40;49.00;;;;;;5023359;28;95974;-58
2022/02/14 08:56:09;;;;;;;7.28;2.55;;;25.30;50.20;;;;;;5019572;28;96477;-56
2022/02/14 08:58:45;;;;;;;6.15;1.90;;;25.10;51.80;;;;;;5020599;28;98106;-58
2022/02/14 09:01:17;;;;;;;8.32;2.75;;;24.90;51.60;;;;;;5012660;28;95919;-56
2022/02/14 09:03:50;;;;;;;8.18;2.28;;;24.80;52.60;;;;;;5014355;28;95868;-58
2022/02/14 09:06:22;;;;;;;7.93;2.75;;;24.60;52.70;;;;;;5019859;27;95975;-57
2022/02/14 09:08:54;;;;;;;3.90;2.60;;;24.50;53.10;;;;;;5021701;28;95981;-57
2022/02/14 09:11:25;;;;;;;7.65;2.60;;;24.50;53.00;;;;;;5019633;28;95856;-55
2022/02/14 09:13:56;;;;;;;4.28;2.08;;;24.40;53.20;;;;;;5017072;27;95353;-57
2022/02/14 09:16:27;;;;;;;11.18;2.88;;;24.40;53.80;;;;;;5005508;27;97108;-57
2022/02/14 09:18:58;;;;;;;9.10;2.95;;;24.30;54.70;;;;;;5017922;28;95789;-55
2022/02/14 09:21:29;;;;;;;3.85;1.90;;;24.30;55.80;;;;;;5021343;28;95982;-57
2022/02/14 09:24:00;;;;;;;10.93;2.85;;;24.30;56.20;;;;;;5025114;28;95761;-57
2022/02/14 09:26:31;;;;;;;5.72;2.30;;;24.30;56.60;;;;;;5025362;28;95947;-57
2022/02/14 09:29:04;;;;;;;4.80;2.28;;;24.20;57.10;;;;;;5024564;28;95422;-56
2022/02/14 09:31:35;;;;;;;12.68;3.30;;;24.20;57.60;;;;;;5019568;28;95262;-57
2022/02/14 09:34:07;;;;;;;7.28;2.70;;;24.20;57.90;;;;;;5024972;28;96505;-57
2022/02/14 09:36:38;;;;;;;3.85;2.10;;;24.10;58.00;;;;;;5019730;28;95889;-57
2022/02/14 09:39:08;;;;;;;6.53;2.78;;;24.10;58.70;;;;;;5025606;28;97832;-57
2022/02/14 09:41:39;;;;;;;6.03;2.30;;;24.10;58.80;;;;;;5023041;28;95639;-58
2022/02/14 09:44:10;;;;;;;9.40;2.55;;;24.00;59.00;;;;;;5022747;28;96138;-58
2022/02/14 09:46:45;;;;;;;9.07;2.80;;;24.00;59.10;;;;;;5011312;27;96543;-58
2022/02/14 09:49:16;;;;;;;5.93;2.50;;;23.90;59.40;;;;;;5016753;28;95914;-59
2022/02/14 09:51:46;;;;;;;;;;;23.80;59.70;;;;;;5017517;28;95647;-59
2022/02/14 09:54:17;;;;;;;10.02;3.00;;;23.70;60.20;;;;;;5013158;28;95936;-60
2022/02/14 09:56:49;;;;;;;11.48;3.25;;;23.60;60.30;;;;;;5018256;28;96400;-60
2022/02/14 09:59:21;;;;;;;9.50;2.85;;;23.60;61.00;;;;;;5013050;28;95937;-59
2022/02/14 10:01:52;;;;;;;7.97;2.35;;;23.50;61.40;;;;;;5005875;27;96559;-60
2022/02/14 10:04:23;;;;;;;9.65;2.85;;;23.50;54.90;;;;;;5023884;28;95369;-59
2022/02/14 10:07:11;;;;;;;7.30;3.05;;;23.50;62.40;;;;;;5021265;28;95969;-59
2022/02/14 10:09:42;;;;;;;9.93;3.00;;;23.40;63.10;;;;;;5008157;28;95996;-59
2022/02/14 10:12:14;;;;;;;8.23;3.15;;;23.40;63.40;;;;;;5016058;28;96740;-57
2022/02/14 10:14:45;;;;;;;9.55;2.50;;;23.40;56.20;;;;;;5015764;27;95859;-60
2022/02/14 10:17:18;;;;;;;9.95;3.05;;;23.30;63.80;;;;;;5011852;27;95899;-59
2022/02/14 10:20:00;;;;;;;11.18;2.95;;;23.30;64.20;;;;;;5021482;28;95632;-60
2022/02/14 10:22:30;;;;;;;10.07;3.55;;;23.30;64.30;;;;;;5013142;27;95820;-60
2022/02/14 10:25:01;;;;;;;10.02;3.25;;;23.30;65.20;;;;;;5018017;28;95790;-59
2022/02/14 10:27:35;;;;;;;12.25;2.75;;;23.20;65.80;;;;;;5014606;27;95865;-61
2022/02/14 10:30:10;;;;;;;14.02;3.63;;;23.20;66.00;;;;;;5023447;28;95979;-61
2022/02/14 10:32:54;;;;;;;8.35;3.10;;;23.10;66.40;;;;;;5024366;28;95716;-61
2022/02/14 10:35:27;;;;;;;11.65;3.30;;;23.10;66.60;;;;;;5028224;28;95856;-60
2022/02/14 10:37:57;;;;;;;13.68;3.35;;;23.10;66.40;;;;;;5025307;28;95895;-59
2022/02/14 10:40:38;;;;;;;12.25;3.20;;;23.00;67.30;;;;;;5023267;28;96580;-61
2022/02/14 10:43:09;;;;;;;10.85;3.33;;;22.90;67.50;;;;;;5013112;28;96848;-60
2022/02/14 10:45:51;;;;;;;;;;;22.90;67.80;;;;;;5008811;28;97311;-55
2022/02/14 10:48:43;;;;;;;12.98;3.45;;;22.90;67.80;;;;;;5024053;28;95782;-61
2022/02/14 10:51:23;;;;;;;12.63;3.63;;;22.90;68.00;;;;;;5018536;28;95932;-62
2022/02/14 10:53:55;;;;;;;;;;;22.90;68.40;;;;;;5010931;28;95769;-61
2022/02/14 10:56:26;;;;;;;11.48;3.15;;;22.80;68.60;;;;;;5011967;28;95760;-63
2022/02/14 10:59:11;;;;;;;17.33;4.45;;;22.80;69.00;;;;;;5010402;28;96065;-61
2022/02/14 11:01:43;;;;;;;12.95;3.92;;;22.70;69.40;;;;;;5002644;28;95945;-59
2022/02/14 11:04:14;;;;;;;10.82;3.75;;;22.70;70.00;;;;;;5021550;28;96015;-62
2022/02/14 11:06:47;;;;;;;19.00;4.25;;;22.60;70.10;;;;;;5019704;28;95386;-61
2022/02/14 11:09:20;;;;;;;11.88;4.60;;;22.60;70.50;;;;;;5010609;28;95900;-62
2022/02/14 11:11:52;;;;;;;16.02;4.68;;;22.60;71.60;;;;;;5018182;28;95764;-62
2022/02/14 11:14:26;;;;;;;13.70;4.40;;;22.50;71.50;;;;;;5013601;27;95745;-60
2022/02/14 11:17:00;;;;;;;15.13;3.67;;;22.50;71.60;;;;;;4983893;28;99485;-60
2022/02/14 11:19:34;;;;;;;10.48;3.80;;;22.50;71.60;;;;;;5016929;28;96659;-62
2022/02/14 11:22:05;;;;;;;11.23;3.58;;;22.40;72.00;;;;;;5018506;27;95930;-62
2022/02/14 11:24:39;;;;;;;14.50;4.13;;;22.40;72.30;;;;;;5022007;28;95692;-61
2022/02/14 11:27:15;;;;;;;20.75;4.30;;;22.40;72.60;;;;;;5017467;28;97089;-62
2022/02/14 11:29:55;;;;;;;12.05;3.85;;;22.30;72.60;;;;;;5020748;28;95844;-62
2022/02/14 11:32:28;;;;;;;12.20;3.23;;;22.30;72.70;;;;;;5008822;28;95952;-60
2022/02/14 11:35:27;;;;;;;12.80;3.28;;;22.30;72.60;;;;;;5024028;28;95280;-62
2022/02/14 11:38:01;;;;;;;13.45;3.70;;;22.40;72.50;;;;;;5025769;28;95841;-62
2022/02/14 11:40:42;;;;;;;11.43;3.72;;;22.40;72.50;;;;;;5025320;28;95906;-62
2022/02/14 11:43:22;;;;;;;13.38;3.38;;;22.30;73.10;;;;;;5019863;28;96050;-62
2022/02/14 11:46:10;;;;;;;14.03;3.63;;;22.30;73.00;;;;;;5014601;28;95375;-61
2022/02/14 11:48:40;;;;;;;8.50;3.60;;;22.20;73.30;;;;;;5021489;28;98312;-61
2022/02/14 11:51:14;;;;;;;13.75;4.32;;;22.20;73.50;;;;;;5020746;28;95847;-62
2022/02/14 11:53:47;;;;;;;9.10;3.50;;;22.10;73.70;;;;;;5021876;28;95933;-63
2022/02/14 11:56:22;;;;;;;17.88;4.03;;;22.00;73.80;;;;;;5021398;28;95407;-62
2022/02/14 11:59:15;;;;;;;10.30;3.33;;;21.90;74.20;;;;;;5022347;28;95360;-60
2022/02/14 12:01:52;;;;;;;15.00;3.78;;;22.10;74.10;;;;;;5012710;27;96664;-61
2022/02/14 12:04:32;;;;;;;10.35;3.72;;;21.80;74.60;;;;;;5013926;28;96408;-60
2022/02/14 12:07:27;;;;;;;19.23;4.40;;;21.80;75.20;;;;;;4994462;28;96120;-61
2022/02/14 12:09:59;;;;;;;12.15;3.80;;;21.80;74.70;;;;;;5015490;28;96270;-62
2022/02/14 12:12:45;;;;;;;13.15;4.40;;;21.80;74.70;;;;;;5023078;28;95961;-62
2022/02/14 12:21:14;;;;;;;12.65;3.72;;;21.90;74.30;;;;;;5020294;28;95474;-62
2022/02/14 12:24:19;;;;;;;13.55;3.78;;;21.80;74.70;;;;;;5015679;28;95666;-61
2022/02/14 12:27:00;;;;;;;12.75;3.67;;;21.90;74.50;;;;;;5020635;28;95769;-62
2022/02/14 12:29:41;;;;;;;20.73;4.73;;;21.90;74.20;;;;;;5017742;28;95735;-62
2022/02/14 12:32:17;;;;;;;11.63;3.70;;;21.80;74.40;;;;;;5013602;28;98895;-62
2022/02/14 12:34:52;;;;;;;16.27;4.05;;;21.80;74.50;;;;;;5018414;28;95897;-62
2022/02/14 12:37:23;;;;;;;11.43;3.55;;;21.80;74.40;;;;;;5020414;28;95732;-62
2022/02/14 12:39:57;;;;;;;11.40;3.58;;;21.90;74.20;;;;;;5015518;28;97067;-62
2022/02/14 12:42:28;;;;;;;11.23;3.78;;;21.90;74.00;;;;;;5019435;28;95834;-62
2022/02/14 12:44:59;;;;;;;11.68;3.65;;;22.00;67.00;;;;;;5019210;28;95848;-61
2022/02/14 12:47:30;;;;;;;15.00;4.30;;;21.90;73.80;;;;;;5016829;28;95772;-62
2022/02/14 12:50:04;;;;;;;11.90;3.97;;;21.90;73.80;;;;;;5023369;28;95804;-63
2022/02/14 12:52:35;;;;;;;13.73;3.70;;;21.90;73.80;;;;;;5019948;28;95861;-63
2022/02/14 12:55:07;;;;;;;19.33;4.60;;;21.90;74.10;;;;;;5017267;28;95973;-63
2022/02/14 12:57:39;;;;;;;14.77;4.05;;;21.80;74.20;;;;;;5012042;28;95829;-61
2022/02/14 13:00:25;;;;;;;12.35;3.97;;;21.80;74.00;;;;;;5013781;28;95447;-62
2022/02/14 13:03:02;;;;;;;9.50;4.00;;;21.80;74.10;;;;;;5015959;28;95644;-62
2022/02/14 13:05:34;;;;;;;14.70;4.72;;;21.90;74.00;;;;;;5022320;28;96039;-62
2022/02/14 13:08:21;;;;;;;11.20;3.92;;;21.90;73.90;;;;;;5019172;28;96022;-61
2022/02/14 13:10:53;;;;;;;8.75;3.67;;;21.80;73.80;;;;;;5014667;28;95848;-62
2022/02/14 13:13:31;;;;;;;15.02;4.28;;;21.80;73.80;;;;;;5013896;27;96777;-62
2022/02/14 13:16:09;;;;;;;13.90;4.05;;;21.80;73.90;;;;;;5005861;27;100794;-62
2022/02/14 13:18:50;;;;;;;8.38;3.88;;;21.60;74.40;;;;;;5019338;28;95930;-62
2022/02/14 13:21:21;;;;;;;15.03;4.20;;;21.60;74.70;;;;;;5014481;28;95694;-61
2022/02/14 13:23:56;;;;;;;;;;;21.60;74.60;;;;;;5014661;28;95845;-62